createdAt,value
2022-07-31T00:00:10.168Z,56.61
2022-07-31T00:02:14.014Z,56.87
2022-07-31T00:04:15.629Z,56.73
2022-07-31T00:06:18.546Z,57.01
2022-07-31T00:08:20.232Z,56.73
2022-07-31T00:10:21.937Z,56.84
2022-07-31T00:12:24.103Z,56.90
2022-07-31T00:14:25.656Z,57.14
2022-07-31T00:16:27.466Z,57.14
2022-07-31T00:18:29.011Z,57.15
2022-07-31T00:20:31.283Z,56.89
2022-07-31T00:22:33.048Z,57.27
2022-07-31T00:24:34.624Z,56.98
2022-07-31T00:26:36.103Z,57.26
2022-07-31T00:28:37.699Z,56.97
2022-07-31T00:30:39.424Z,57.33
2022-07-31T00:32:42.030Z,57.45
2022-07-31T00:34:43.702Z,57.11
2022-07-31T00:36:45.277Z,57.23
2022-07-31T00:38:46.918Z,57.26
2022-07-31T00:40:50.172Z,57.47
2022-07-31T00:42:51.712Z,57.74
2022-07-31T00:44:53.341Z,57.27
2022-07-31T00:46:54.916Z,57.53
2022-07-31T00:48:56.890Z,57.63
2022-07-31T00:50:58.540Z,57.61
2022-07-31T00:53:00.228Z,57.85
2022-07-31T00:55:02.044Z,57.67
2022-07-31T00:57:04.401Z,58.01
2022-07-31T00:59:06.339Z,57.93
2022-07-31T01:01:07.857Z,58.18
2022-07-31T01:03:09.471Z,58.12
2022-07-31T01:05:11.257Z,58.01
2022-07-31T01:07:12.871Z,58.35
2022-07-31T01:09:15.342Z,58.33
2022-07-31T01:11:24.726Z,58.85
2022-07-31T01:13:41.245Z,58.82
2022-07-31T01:15:45.057Z,58.59
2022-07-31T01:17:49.745Z,58.97
2022-07-31T01:19:52.275Z,59.09
2022-07-31T01:22:03.826Z,59.09
2022-07-31T01:24:41.827Z,59.25
2022-07-31T01:27:01.723Z,59.12
2022-07-31T01:29:06.538Z,58.78
2022-07-31T01:31:28.612Z,58.93
2022-07-31T01:33:42.463Z,59.20
2022-07-31T01:35:54.054Z,59.54
2022-07-31T01:38:08.823Z,59.52
2022-07-31T01:40:14.493Z,59.54
2022-07-31T01:42:19.711Z,59.42
2022-07-31T01:44:26.774Z,59.65
2022-07-31T01:46:30.652Z,59.52
2022-07-31T01:48:35.661Z,59.48
2022-07-31T01:50:43.775Z,59.71
2022-07-31T01:52:46.789Z,59.90
2022-07-31T01:54:49.427Z,59.75
2022-07-31T01:56:52.460Z,59.59
2022-07-31T01:58:55.462Z,59.31
2022-07-31T02:01:26.966Z,59.53
2022-07-31T02:03:42.951Z,59.74
2022-07-31T02:05:49.064Z,59.87
2022-07-31T02:07:53.180Z,60.16
2022-07-31T02:09:59.339Z,60.34
2022-07-31T02:12:09.682Z,60.49
2022-07-31T02:14:14.090Z,60.54
2022-07-31T02:16:18.648Z,60.57
2022-07-31T02:18:22.464Z,60.84
2022-07-31T02:20:51.160Z,60.74
2022-07-31T02:22:53.986Z,60.89
2022-07-31T02:24:55.635Z,61.12
2022-07-31T02:26:58.015Z,60.92
2022-07-31T02:29:00.183Z,61.23
2022-07-31T02:31:03.021Z,61.17
2022-07-31T02:33:09.039Z,61.25
2022-07-31T02:35:12.341Z,61.11
2022-07-31T02:37:15.254Z,61.31
2022-07-31T02:39:17.826Z,61.07
2022-07-31T02:41:21.313Z,61.33
2022-07-31T02:43:25.428Z,61.26
2022-07-31T02:45:27.925Z,61.47
2022-07-31T02:47:29.767Z,61.60
2022-07-31T02:49:34.639Z,61.62
2022-07-31T02:51:42.567Z,61.56
2022-07-31T02:53:45.797Z,61.63
2022-07-31T02:55:48.056Z,61.54
2022-07-31T02:57:51.252Z,61.81
2022-07-31T02:59:54.799Z,61.69
2022-07-31T03:01:59.472Z,61.74
2022-07-31T03:04:02.935Z,61.59
2022-07-31T03:06:04.794Z,61.75
2022-07-31T03:08:07.540Z,61.55
2022-07-31T03:10:13.420Z,61.83
2022-07-31T03:12:30.369Z,61.83
2022-07-31T03:14:34.253Z,61.58
2022-07-31T03:16:36.908Z,61.59
2022-07-31T03:18:40.691Z,61.79
2022-07-31T03:20:43.919Z,61.77
2022-07-31T03:22:45.804Z,61.46
2022-07-31T03:24:48.265Z,61.70
2022-07-31T03:26:50.233Z,61.58
2022-07-31T03:28:51.768Z,61.64
2022-07-31T03:30:56.512Z,61.45
2022-07-31T03:33:03.423Z,61.56
2022-07-31T03:35:07.541Z,61.38
2022-07-31T03:37:10.447Z,61.65
2022-07-31T03:39:11.884Z,61.70
2022-07-31T03:41:19.373Z,61.62
2022-07-31T03:43:22.459Z,61.41
2022-07-31T03:45:26.691Z,61.50
2022-07-31T03:47:29.052Z,61.31
2022-07-31T03:49:32.639Z,61.52
2022-07-31T03:51:35.102Z,61.36
2022-07-31T03:53:37.912Z,61.41
2022-07-31T03:55:42.991Z,61.15
2022-07-31T03:57:45.433Z,61.34
2022-07-31T03:59:56.250Z,61.45
2022-07-31T04:02:00.944Z,61.30
2022-07-31T04:04:14.245Z,61.30
2022-07-31T04:06:30.980Z,61.28
2022-07-31T04:08:33.804Z,61.56
2022-07-31T04:10:36.641Z,61.54
2022-07-31T04:12:39.339Z,61.40
2022-07-31T04:14:40.917Z,61.62
2022-07-31T04:16:42.724Z,61.55
2022-07-31T04:18:50.793Z,61.42
2022-07-31T04:20:53.150Z,61.72
2022-07-31T04:22:55.827Z,61.70
2022-07-31T04:25:17.369Z,61.65
2022-07-31T04:27:48.751Z,61.75
2022-07-31T04:29:51.637Z,61.93
2022-07-31T04:31:55.910Z,61.82
2022-07-31T04:34:04.542Z,62.08
2022-07-31T04:36:06.335Z,62.06
2022-07-31T04:38:27.878Z,62.29
2022-07-31T04:40:31.278Z,62.20
2022-07-31T04:42:33.034Z,62.46
2022-07-31T04:44:35.869Z,62.79
2022-07-31T04:46:41.075Z,62.62
2022-07-31T04:48:42.652Z,62.99
2022-07-31T04:50:48.783Z,63.05
2022-07-31T04:52:51.562Z,63.01
2022-07-31T04:54:53.382Z,63.01
2022-07-31T04:56:55.780Z,62.92
2022-07-31T04:58:59.380Z,63.17
2022-07-31T05:01:02.201Z,63.04
2022-07-31T05:03:05.436Z,63.21
2022-07-31T05:05:07.670Z,63.15
2022-07-31T05:07:17.188Z,63.22
2022-07-31T05:09:25.371Z,63.36
2022-07-31T05:11:31.219Z,63.41
2022-07-31T05:13:33.470Z,63.00
2022-07-31T05:15:35.261Z,63.04
2022-07-31T05:17:37.120Z,63.35
2022-07-31T05:20:05.626Z,63.26
2022-07-31T05:22:33.978Z,63.67
2022-07-31T05:25:05.034Z,63.38
2022-07-31T05:27:06.970Z,63.59
2022-07-31T05:29:08.545Z,63.30
2022-07-31T05:31:10.918Z,63.23
2022-07-31T05:33:13.216Z,63.49
2022-07-31T05:35:18.079Z,63.45
2022-07-31T05:37:21.028Z,63.53
2022-07-31T05:39:22.674Z,63.61
2022-07-31T05:41:42.770Z,63.28
2022-07-31T05:44:11.123Z,63.46
2022-07-31T05:46:18.930Z,63.20
2022-07-31T05:48:20.637Z,63.46
2022-07-31T05:50:25.301Z,63.02
2022-07-31T05:52:27.153Z,63.48
2022-07-31T05:54:45.795Z,63.04
2022-07-31T05:57:33.485Z,63.07
2022-07-31T05:59:35.821Z,62.76
2022-07-31T06:01:38.668Z,62.82
2022-07-31T06:03:51.873Z,62.80
2022-07-31T06:06:04.115Z,62.55
2022-07-31T06:08:06.792Z,62.49
2022-07-31T06:10:15.590Z,62.67
2022-07-31T06:12:17.392Z,62.41
2022-07-31T06:14:19.012Z,62.60
2022-07-31T06:16:38.104Z,62.56
2022-07-31T06:18:40.490Z,62.27
2022-07-31T06:20:42.357Z,62.64
2022-07-31T06:22:44.719Z,62.22
2022-07-31T06:24:46.543Z,62.26
2022-07-31T06:26:48.147Z,62.04
2022-07-31T06:28:51.089Z,61.98
2022-07-31T06:30:53.679Z,62.48
2022-07-31T06:32:55.491Z,62.54
2022-07-31T06:34:57.461Z,62.41
2022-07-31T06:37:00.211Z,62.08
2022-07-31T06:39:01.803Z,61.89
2022-07-31T06:41:40.723Z,61.59
2022-07-31T06:44:00.920Z,61.26
2022-07-31T06:46:22.524Z,61.09
2022-07-31T06:48:50.648Z,60.76
2022-07-31T06:51:14.695Z,60.60
2022-07-31T06:53:21.949Z,60.41
2022-07-31T06:55:23.712Z,60.11
2022-07-31T06:57:25.890Z,60.17
2022-07-31T06:59:39.342Z,60.12
2022-07-31T07:01:42.275Z,60.20
2022-07-31T07:03:43.977Z,60.12
2022-07-31T07:05:45.635Z,59.95
2022-07-31T07:07:49.385Z,60.17
2022-07-31T07:09:51.096Z,59.91
2022-07-31T07:12:10.757Z,59.68
2022-07-31T07:14:21.513Z,59.70
2022-07-31T07:16:23.393Z,59.26
2022-07-31T07:18:25.315Z,59.21
2022-07-31T07:20:28.625Z,58.83
2022-07-31T07:22:32.787Z,58.66
2022-07-31T07:24:36.839Z,58.51
2022-07-31T07:26:43.109Z,58.60
2022-07-31T07:28:44.686Z,58.57
2022-07-31T07:30:46.480Z,58.72
2022-07-31T07:32:48.136Z,58.79
2022-07-31T07:34:59.617Z,58.85
2022-07-31T07:37:41.577Z,59.03
2022-07-31T07:39:43.260Z,59.03
2022-07-31T07:41:45.252Z,59.29
2022-07-31T07:43:51.767Z,59.24
2022-07-31T07:45:55.238Z,59.43
2022-07-31T07:48:06.430Z,59.36
2022-07-31T07:50:26.861Z,59.10
2022-07-31T07:53:03.069Z,58.99
2022-07-31T07:55:37.353Z,58.25
2022-07-31T07:57:58.036Z,58.16
2022-07-31T08:00:18.046Z,57.54
2022-07-31T08:02:26.484Z,57.40
2022-07-31T08:04:28.068Z,57.40
2022-07-31T08:06:29.707Z,57.60
2022-07-31T08:08:32.019Z,57.62
2022-07-31T08:10:45.716Z,56.33
2022-07-31T08:12:55.164Z,57.07
2022-07-31T08:15:15.575Z,55.70
2022-07-31T08:17:35.786Z,55.40
2022-07-31T08:19:38.674Z,55.22
2022-07-31T08:21:42.265Z,54.28
2022-07-31T08:23:43.887Z,54.58
2022-07-31T08:25:45.770Z,54.73
2022-07-31T08:27:49.612Z,54.50
2022-07-31T08:29:53.590Z,53.12
2022-07-31T08:31:58.724Z,54.14
2022-07-31T08:34:31.006Z,54.00
2022-07-31T08:36:34.676Z,53.88
2022-07-31T08:38:36.988Z,53.82
2022-07-31T08:40:57.178Z,52.90
2022-07-31T08:43:00.968Z,52.60
2022-07-31T08:45:07.631Z,51.90
2022-07-31T08:47:15.028Z,51.74
2022-07-31T08:49:18.991Z,51.87
2022-07-31T08:51:23.928Z,52.06
2022-07-31T08:53:59.867Z,51.95
2022-07-31T08:56:03.239Z,51.58
2022-07-31T08:58:04.872Z,50.94
2022-07-31T09:00:10.661Z,50.97
2022-07-31T09:02:13.751Z,51.21
2022-07-31T09:04:32.364Z,50.50
2022-07-31T09:06:34.083Z,50.62
2022-07-31T09:08:37.308Z,51.07
2022-07-31T09:10:43.957Z,51.01
2022-07-31T09:12:49.349Z,50.64
2022-07-31T09:14:52.304Z,50.74
2022-07-31T09:16:56.602Z,50.55
2022-07-31T09:19:01.561Z,49.81
2022-07-31T09:21:07.025Z,50.31
2022-07-31T09:23:11.029Z,49.71
2022-07-31T09:25:21.451Z,49.05
2022-07-31T09:27:28.404Z,48.21
2022-07-31T09:29:40.791Z,49.02
2022-07-31T09:31:51.839Z,48.56
2022-07-31T09:34:13.861Z,48.99
2022-07-31T09:36:15.477Z,48.54
2022-07-31T09:38:23.416Z,48.70
2022-07-31T09:40:57.054Z,48.41
2022-07-31T09:43:24.211Z,47.91
2022-07-31T09:45:25.948Z,47.54
2022-07-31T09:47:30.739Z,47.37
2022-07-31T09:49:35.622Z,47.49
2022-07-31T09:51:41.885Z,46.67
2022-07-31T09:53:50.032Z,47.07
2022-07-31T09:56:12.954Z,46.39
2022-07-31T09:58:14.557Z,45.50
2022-07-31T10:00:17.379Z,45.22
2022-07-31T10:02:20.478Z,44.91
2022-07-31T10:04:25.183Z,44.25
2022-07-31T10:06:31.530Z,44.24
2022-07-31T10:08:37.049Z,43.46
2022-07-31T10:10:59.501Z,43.64
2022-07-31T10:13:08.767Z,42.83
2022-07-31T10:15:13.365Z,42.57
2022-07-31T10:17:23.976Z,42.56
2022-07-31T10:19:38.142Z,42.14
2022-07-31T10:21:57.691Z,41.27
2022-07-31T10:24:05.461Z,41.79
2022-07-31T10:26:07.703Z,41.69
2022-07-31T10:28:09.508Z,40.88
2022-07-31T10:30:11.393Z,41.65
2022-07-31T10:32:18.161Z,40.50
2022-07-31T10:34:40.801Z,41.11
2022-07-31T10:37:11.279Z,40.04
2022-07-31T10:39:45.320Z,40.02
2022-07-31T10:42:12.790Z,39.43
2022-07-31T10:44:33.514Z,40.56
2022-07-31T10:47:18.270Z,39.34
2022-07-31T10:49:46.320Z,40.56
2022-07-31T10:52:26.984Z,40.24
2022-07-31T10:54:47.342Z,39.98
2022-07-31T10:57:24.843Z,39.73
2022-07-31T10:59:46.444Z,40.21
2022-07-31T11:02:35.183Z,39.98
2022-07-31T11:05:21.629Z,40.30
2022-07-31T11:07:45.828Z,39.67
2022-07-31T11:10:11.364Z,40.09
2022-07-31T11:12:31.873Z,39.97
2022-07-31T11:15:03.093Z,39.04
2022-07-31T11:18:21.121Z,37.99
2022-07-31T11:20:02.911Z,39.08
2022-07-31T11:22:31.840Z,39.06
2022-07-31T11:24:33.964Z,39.34
2022-07-31T11:26:41.295Z,38.87
2022-07-31T11:28:44.847Z,38.74
2022-07-31T11:31:01.461Z,38.48
2022-07-31T11:33:02.964Z,38.43
2022-07-31T11:35:04.888Z,38.76
2022-07-31T11:37:07.232Z,38.40
2022-07-31T11:39:12.867Z,38.90
2022-07-31T11:41:22.079Z,38.89
2022-07-31T11:43:26.027Z,38.55
2022-07-31T11:45:27.894Z,38.49
2022-07-31T11:48:12.797Z,38.78
2022-07-31T11:50:04.174Z,38.68
2022-07-31T11:52:08.338Z,38.28
2022-07-31T11:54:30.112Z,38.29
2022-07-31T11:56:31.724Z,38.11
2022-07-31T11:58:33.941Z,37.78
2022-07-31T12:00:35.585Z,37.73
2022-07-31T12:02:41.069Z,35.95
2022-07-31T12:04:42.703Z,36.94
2022-07-31T12:06:44.309Z,36.58
2022-07-31T12:08:47.966Z,35.81
2022-07-31T12:10:52.973Z,35.73
2022-07-31T12:12:54.556Z,35.14
2022-07-31T12:14:56.146Z,35.39
2022-07-31T12:16:57.725Z,35.54
2022-07-31T12:18:59.540Z,35.41
2022-07-31T12:21:04.231Z,35.27
2022-07-31T12:23:06.003Z,34.90
2022-07-31T12:25:09.794Z,34.96
2022-07-31T12:27:16.285Z,34.99
2022-07-31T12:29:18.718Z,35.38
2022-07-31T12:31:20.273Z,35.20
2022-07-31T12:33:21.920Z,34.96
2022-07-31T12:35:23.798Z,34.88
2022-07-31T12:37:27.653Z,35.29
2022-07-31T12:39:54.413Z,34.89
2022-07-31T12:41:56.686Z,34.94
2022-07-31T12:44:13.149Z,34.61
2022-07-31T12:46:16.072Z,34.58
2022-07-31T12:48:17.616Z,35.27
2022-07-31T12:50:20.406Z,35.19
2022-07-31T12:52:23.695Z,35.02
2022-07-31T12:54:26.321Z,35.23
2022-07-31T12:56:27.911Z,35.55
2022-07-31T12:58:29.691Z,35.31
2022-07-31T13:00:31.538Z,35.28
2022-07-31T13:02:33.072Z,35.23
2022-07-31T13:04:35.511Z,35.23
2022-07-31T13:06:37.545Z,35.40
2022-07-31T13:08:39.137Z,35.32
2022-07-31T13:10:40.773Z,35.50
2022-07-31T13:12:42.320Z,35.26
2022-07-31T13:14:43.906Z,35.36
2022-07-31T13:16:46.766Z,35.54
2022-07-31T13:18:48.439Z,35.15
2022-07-31T13:20:50.154Z,35.42
2022-07-31T13:22:51.657Z,35.09
2022-07-31T13:24:53.376Z,35.57
2022-07-31T13:26:54.921Z,35.58
2022-07-31T13:28:56.434Z,35.56
2022-07-31T13:30:58.051Z,35.39
2022-07-31T13:32:59.568Z,35.40
2022-07-31T13:35:24.001Z,34.19
2022-07-31T13:37:22.683Z,34.41
2022-07-31T13:39:24.282Z,35.02
2022-07-31T13:41:28.528Z,35.50
2022-07-31T13:43:30.051Z,35.46
2022-07-31T13:45:32.496Z,35.21
2022-07-31T13:47:51.234Z,35.36
2022-07-31T13:49:53.882Z,34.68
2022-07-31T13:51:56.000Z,35.19
2022-07-31T13:53:57.524Z,35.07
2022-07-31T13:55:59.435Z,35.10
2022-07-31T13:58:01.679Z,34.84
2022-07-31T14:00:04.565Z,35.52
2022-07-31T14:02:07.909Z,35.55
2022-07-31T14:04:12.833Z,35.05
2022-07-31T14:06:17.296Z,34.81
2022-07-31T14:08:32.613Z,34.86
2022-07-31T14:10:36.546Z,35.56
2022-07-31T14:12:39.827Z,35.29
2022-07-31T14:14:41.549Z,35.24
2022-07-31T14:16:43.236Z,35.25
2022-07-31T14:18:44.817Z,35.19
2022-07-31T14:20:46.676Z,35.57
2022-07-31T14:22:48.162Z,35.88
2022-07-31T14:24:51.208Z,35.12
2022-07-31T14:26:53.527Z,35.32
2022-07-31T14:28:55.272Z,35.49
2022-07-31T14:30:57.083Z,35.80
2022-07-31T14:32:58.744Z,35.27
2022-07-31T14:35:04.549Z,35.14
2022-07-31T14:37:09.155Z,35.48
2022-07-31T14:39:10.750Z,35.46
2022-07-31T14:41:12.611Z,35.43
2022-07-31T14:43:14.506Z,35.67
2022-07-31T14:45:16.116Z,35.34
2022-07-31T14:47:17.803Z,35.23
2022-07-31T14:49:19.352Z,35.72
2022-07-31T14:51:21.053Z,35.28
2022-07-31T14:53:22.577Z,35.90
2022-07-31T14:55:26.493Z,35.50
2022-07-31T14:57:30.033Z,35.68
2022-07-31T14:59:31.983Z,35.36
2022-07-31T15:01:33.706Z,35.75
2022-07-31T15:03:35.288Z,35.56
2022-07-31T15:06:41.091Z,35.51
2022-07-31T15:07:59.081Z,35.30
2022-07-31T15:10:01.201Z,35.67
2022-07-31T15:12:03.461Z,35.26
2022-07-31T15:14:05.189Z,35.30
2022-07-31T15:16:09.055Z,35.67
2022-07-31T15:18:10.523Z,35.17
2022-07-31T15:20:15.669Z,34.85
2022-07-31T15:22:19.128Z,35.21
2022-07-31T15:24:20.688Z,35.36
2022-07-31T15:26:22.294Z,34.97
2022-07-31T15:28:23.772Z,35.56
2022-07-31T15:30:25.418Z,34.99
2022-07-31T15:32:26.977Z,34.61
2022-07-31T15:34:29.060Z,35.17
2022-07-31T15:36:30.797Z,34.75
2022-07-31T15:38:32.620Z,35.04
2022-07-31T15:40:35.017Z,34.55
2022-07-31T15:42:40.351Z,34.95
2022-07-31T15:44:42.234Z,34.50
2022-07-31T15:46:43.851Z,34.07
2022-07-31T15:48:45.276Z,34.25
2022-07-31T15:50:47.006Z,34.31
2022-07-31T15:52:49.396Z,34.08
2022-07-31T15:54:51.945Z,34.68
2022-07-31T15:56:53.801Z,34.21
2022-07-31T15:58:55.330Z,34.38
2022-07-31T16:00:57.132Z,34.23
2022-07-31T16:02:59.668Z,34.01
2022-07-31T16:05:21.311Z,34.33
2022-07-31T16:08:30.039Z,34.43
2022-07-31T16:10:15.838Z,34.87
2022-07-31T16:12:06.806Z,34.81
2022-07-31T16:14:10.240Z,34.82
2022-07-31T16:16:11.812Z,34.34
2022-07-31T16:18:18.302Z,34.33
2022-07-31T16:20:26.248Z,34.59
2022-07-31T16:22:28.667Z,34.64
2022-07-31T16:24:30.168Z,34.44
2022-07-31T16:26:33.379Z,34.71
2022-07-31T16:28:34.944Z,34.77
2022-07-31T16:30:36.699Z,34.71
2022-07-31T16:32:38.255Z,34.69
2022-07-31T16:34:40.708Z,34.09
2022-07-31T16:36:44.079Z,34.33
2022-07-31T16:38:59.507Z,34.51
2022-07-31T16:41:07.185Z,34.69
2022-07-31T16:43:47.902Z,34.24
2022-07-31T16:45:30.908Z,34.45
2022-07-31T16:47:50.982Z,34.45
2022-07-31T16:49:54.097Z,34.31
2022-07-31T16:51:55.742Z,34.52
2022-07-31T16:54:14.237Z,34.37
2022-07-31T16:56:18.342Z,34.77
2022-07-31T16:58:24.023Z,34.61
2022-07-31T17:00:26.798Z,34.87
2022-07-31T17:02:28.307Z,34.78
2022-07-31T17:04:30.450Z,34.10
2022-07-31T17:06:36.057Z,34.30
2022-07-31T17:08:39.060Z,34.05
2022-07-31T17:10:40.860Z,34.20
2022-07-31T17:12:42.440Z,34.73
2022-07-31T17:14:43.916Z,34.55
2022-07-31T17:16:48.629Z,34.77
2022-07-31T17:18:52.665Z,34.36
2022-07-31T17:20:56.875Z,34.82
2022-07-31T17:22:58.992Z,34.33
2022-07-31T17:25:01.567Z,34.30
2022-07-31T17:27:05.399Z,34.49
2022-07-31T17:29:07.567Z,34.77
2022-07-31T17:31:09.224Z,34.39
2022-07-31T17:33:11.889Z,34.67
2022-07-31T17:35:13.676Z,34.53
2022-07-31T17:37:19.283Z,34.73
2022-07-31T17:39:20.743Z,34.95
2022-07-31T17:41:24.662Z,34.70
2022-07-31T17:43:27.748Z,34.53
2022-07-31T17:45:50.847Z,34.67
2022-07-31T17:48:03.390Z,34.84
2022-07-31T17:50:05.893Z,34.94
2022-07-31T17:52:07.579Z,34.54
2022-07-31T17:54:09.462Z,34.68
2022-07-31T17:56:13.022Z,34.68
2022-07-31T17:58:15.019Z,34.75
2022-07-31T18:00:16.868Z,34.77
2022-07-31T18:02:18.561Z,34.89
2022-07-31T18:04:21.089Z,34.79
2022-07-31T18:06:23.078Z,35.47
2022-07-31T18:08:25.012Z,35.09
2022-07-31T18:10:51.818Z,35.77
2022-07-31T18:12:57.554Z,35.54
2022-07-31T18:15:01.259Z,35.71
2022-07-31T18:17:02.832Z,35.86
2022-07-31T18:19:04.483Z,35.77
2022-07-31T18:21:06.339Z,36.15
2022-07-31T18:23:10.053Z,36.04
2022-07-31T18:25:11.983Z,36.00
2022-07-31T18:27:13.712Z,36.35
2022-07-31T18:29:17.097Z,36.01
2022-07-31T18:31:31.999Z,35.92
2022-07-31T18:33:36.256Z,36.28
2022-07-31T18:35:37.884Z,36.45
2022-07-31T18:37:39.741Z,36.46
2022-07-31T18:39:49.064Z,36.41
2022-07-31T18:41:51.449Z,36.40
2022-07-31T18:43:53.448Z,36.40
2022-07-31T18:45:55.083Z,36.08
2022-07-31T18:47:56.774Z,36.01
2022-07-31T18:50:59.864Z,36.20
2022-07-31T18:52:20.071Z,36.45
2022-07-31T18:54:21.948Z,36.56
2022-07-31T18:56:24.873Z,36.03
2022-07-31T18:58:26.606Z,36.41
2022-07-31T19:00:28.933Z,36.56
2022-07-31T19:02:30.859Z,36.17
2022-07-31T19:04:32.687Z,36.44
2022-07-31T19:06:34.300Z,36.28
2022-07-31T19:08:36.010Z,36.11
2022-07-31T19:10:37.930Z,36.52
2022-07-31T19:12:39.569Z,36.40
2022-07-31T19:14:41.278Z,36.39
2022-07-31T19:16:43.880Z,36.51
2022-07-31T19:18:49.318Z,36.40
2022-07-31T19:20:58.879Z,36.42
2022-07-31T19:23:14.374Z,36.60
2022-07-31T19:25:16.096Z,36.83
2022-07-31T19:27:17.989Z,36.76
2022-07-31T19:29:20.713Z,36.55
2022-07-31T19:31:22.642Z,36.86
2022-07-31T19:33:24.851Z,36.87
2022-07-31T19:35:27.424Z,36.94
2022-07-31T19:37:28.979Z,37.25
2022-07-31T19:39:30.668Z,37.11
2022-07-31T19:41:33.727Z,37.09
2022-07-31T19:43:35.907Z,37.28
2022-07-31T19:45:37.494Z,36.90
2022-07-31T19:47:59.424Z,36.90
2022-07-31T19:50:01.241Z,36.98
2022-07-31T19:52:03.352Z,37.15
2022-07-31T19:54:05.229Z,37.44
2022-07-31T19:56:07.605Z,37.38
2022-07-31T19:58:09.136Z,37.51
2022-07-31T20:00:12.575Z,37.38
2022-07-31T20:02:16.991Z,37.08
2022-07-31T20:04:18.887Z,37.63
2022-07-31T20:06:20.640Z,37.87
2022-07-31T20:08:22.801Z,37.95
2022-07-31T20:10:25.374Z,37.73
2022-07-31T20:12:26.956Z,37.70
2022-07-31T20:14:28.674Z,38.10
2022-07-31T20:16:30.772Z,37.96
2022-07-31T20:18:32.456Z,37.85
2022-07-31T20:20:34.097Z,38.10
2022-07-31T20:22:35.957Z,38.29
2022-07-31T20:24:38.720Z,38.45
2022-07-31T20:26:40.263Z,38.45
2022-07-31T20:28:42.534Z,38.44
2022-07-31T20:30:44.040Z,38.31
2022-07-31T20:32:48.731Z,38.52
2022-07-31T20:34:50.552Z,38.31
2022-07-31T20:36:55.295Z,38.36
2022-07-31T20:38:58.611Z,38.62
2022-07-31T20:41:00.338Z,38.67
2022-07-31T20:43:03.405Z,38.45
2022-07-31T20:45:05.718Z,38.68
2022-07-31T20:47:08.638Z,38.64
2022-07-31T20:49:19.867Z,38.89
2022-07-31T20:51:32.032Z,38.76
2022-07-31T20:53:33.666Z,38.94
2022-07-31T20:55:35.179Z,38.84
2022-07-31T20:57:36.998Z,39.06
2022-07-31T20:59:38.556Z,39.16
2022-07-31T21:01:41.311Z,39.16
2022-07-31T21:03:42.883Z,38.99
2022-07-31T21:05:45.815Z,39.25
2022-07-31T21:07:47.625Z,39.10
2022-07-31T21:09:49.308Z,39.35
2022-07-31T21:11:51.211Z,39.32
2022-07-31T21:13:52.741Z,39.15
2022-07-31T21:15:54.768Z,39.42
2022-07-31T21:17:57.819Z,39.22
2022-07-31T21:20:04.753Z,39.42
2022-07-31T21:22:06.671Z,39.06
2022-07-31T21:24:08.601Z,39.12
2022-07-31T21:26:10.292Z,39.21
2022-07-31T21:28:12.528Z,39.64
2022-07-31T21:30:14.494Z,39.99
2022-07-31T21:32:16.305Z,39.98
2022-07-31T21:34:22.233Z,40.10
2022-07-31T21:36:23.783Z,39.85
2022-07-31T21:38:25.555Z,40.14
2022-07-31T21:40:27.350Z,40.26
2022-07-31T21:42:31.870Z,40.63
2022-07-31T21:44:37.345Z,40.16
2022-07-31T21:46:39.810Z,40.52
2022-07-31T21:48:45.768Z,40.55
2022-07-31T21:50:47.587Z,40.58
2022-07-31T21:52:49.308Z,40.33
2022-07-31T21:54:50.821Z,40.58
2022-07-31T21:56:52.416Z,40.41
2022-07-31T21:58:54.060Z,40.63
2022-07-31T22:00:55.755Z,40.44
2022-07-31T22:02:57.552Z,40.52
2022-07-31T22:05:17.894Z,40.15
2022-07-31T22:07:34.753Z,40.30
2022-07-31T22:09:36.614Z,40.46
2022-07-31T22:11:38.377Z,40.72
2022-07-31T22:13:40.139Z,40.52
2022-07-31T22:15:51.458Z,40.93
2022-07-31T22:18:01.295Z,41.05
2022-07-31T22:20:04.749Z,41.00
2022-07-31T22:22:06.916Z,40.88
2022-07-31T22:24:09.597Z,41.10
2022-07-31T22:26:11.653Z,41.28
2022-07-31T22:28:13.461Z,41.52
2022-07-31T22:30:16.218Z,41.67
2022-07-31T22:32:17.792Z,41.98
2022-07-31T22:34:37.250Z,42.04
2022-07-31T22:36:39.867Z,42.38
2022-07-31T22:38:45.977Z,42.64
2022-07-31T22:40:47.561Z,42.84
2022-07-31T22:42:56.109Z,42.57
2022-07-31T22:44:59.500Z,42.42
2022-07-31T22:47:01.793Z,42.78
2022-07-31T22:49:06.222Z,42.48
2022-07-31T22:51:09.021Z,42.81
2022-07-31T22:53:13.039Z,42.94
2022-07-31T22:55:15.000Z,43.24
2022-07-31T22:57:17.243Z,43.13
2022-07-31T22:59:21.436Z,43.58
2022-07-31T23:01:23.154Z,43.47
2022-07-31T23:03:24.730Z,43.26
2022-07-31T23:05:26.462Z,43.33
2022-07-31T23:07:27.879Z,43.07
2022-07-31T23:09:29.681Z,43.34
2022-07-31T23:11:31.256Z,43.52
2022-07-31T23:13:32.897Z,43.50
2022-07-31T23:15:34.545Z,43.17
2022-07-31T23:17:36.038Z,43.14
2022-07-31T23:19:37.688Z,43.21
2022-07-31T23:21:39.235Z,43.41
2022-07-31T23:23:41.174Z,43.89
2022-07-31T23:25:51.131Z,43.70
2022-07-31T23:27:52.713Z,44.37
2022-07-31T23:29:54.347Z,44.50
2022-07-31T23:31:55.865Z,44.55
2022-07-31T23:33:57.545Z,44.12
2022-07-31T23:36:00.870Z,44.76
2022-07-31T23:38:02.416Z,44.41
2022-07-31T23:40:04.517Z,44.37
2022-07-31T23:42:24.738Z,44.70
2022-07-31T23:44:26.410Z,44.57
2022-07-31T23:46:28.238Z,44.96
2022-07-31T23:48:30.228Z,44.65
2022-07-31T23:50:32.046Z,44.49
2022-07-31T23:52:33.573Z,44.89
2022-07-31T23:54:35.148Z,44.55
2022-07-31T23:56:36.693Z,44.55
2022-07-31T23:58:38.217Z,44.76
